DABT

Details ICAO DABT (BLJ)
Name BATNA
Region Algeria
Timezone Africa/Algiers (UTC+1.0)
Plans Departing 10
Arriving 11
Stats Elevation 2,697 ft / 822 m (AMSL)
Location 35.752104° 6.308589°
Runways 1
Magnetic Variation 1.651° E
Sunrise 2017-12-13 06:37:26 UTC / 2017-12-13 07:37:26 Local
Sunset 2017-12-13 16:23:19 UTC / 2017-12-13 17:23:19 Local
Advertisement - Login to hide

Runways

ID Width Length Bearing (true) Bearing (mag) Surface Threshold Offset Overrun Length
05 148 ft / 45 m 9,837 ft / 2,998 m 54.80° 53.15° Asphalt 0 ft / 0 m 350 ft / 107 m
23 148 ft / 45 m 9,837 ft / 2,998 m 234.81° 233.16° Asphalt 0 ft / 0 m 375 ft / 114 m

Map

Weather


0- 5 10 15 20 25 30 35+ Temperature / ° C

Clouds and Precipitation
Forecast for 2017-12-13 06:00 UTC. Updated 2 hours ago

Ground ~20,000 ft ~40,000 ft Winds

METAR

DABT 130500Z 12004KT CAVOK 04/M00 Q1023

TAF

TAF DABT 122300Z 1300/1324 26006KT 9999 FEW023 BKN040

Frequencies

Tower 118.10 MHz TWR
Tower 119.70 MHz TWR
Warning: Do not use this data for real-world aviation or navigation. No guarantee of current accuracy is given.